Time;durP1;ratioP1;P1;durP2;ratioP2;P2;SDS_P1;SDS_P2;PMS_P1;PMS_P2;Temp;Humidity;BMP_temperature;BMP_pressure;BME280_temperature;BME280_humidity;BME280_pressure;Samples;Min_cycle;Max_cycle;Signal;HPM_P1;HPM_P2
2022/11/16 00:01:40;;;;;;;8.18;4.72;;;;;;;8.30;100.00;96043.19;5029414;28;20612;-59
2022/11/16 00:04:10;;;;;;;9.07;4.80;;;;;;;8.27;100.00;96038.31;5029563;28;20049;-59
2022/11/16 00:06:37;;;;;;;8.07;4.75;;;;;;;8.28;100.00;96034.53;5049639;28;20067;-57
2022/11/16 00:09:21;;;;;;;7.03;4.55;;;;;;;8.29;100.00;96033.47;5049409;28;20045;-58
2022/11/16 00:11:56;;;;;;;7.40;4.47;;;;;;;8.33;100.00;96026.44;5029137;28;20474;-59
2022/11/16 00:14:25;;;;;;;7.60;4.38;;;;;;;8.31;100.00;96032.13;5048324;28;20045;-59
2022/11/16 00:16:51;;;;;;;7.25;4.72;;;;;;;8.26;100.00;96031.31;5038615;28;20179;-58
2022/11/16 00:19:18;;;;;;;8.60;4.43;;;;;;;8.25;100.00;96027.00;5050233;28;20516;-59
2022/11/16 00:21:45;;;;;;;7.97;4.57;;;;;;;8.25;100.00;96029.72;5031852;28;20042;-58
2022/11/16 00:24:16;;;;;;;7.22;4.30;;;;;;;8.25;100.00;96021.63;5032453;28;20037;-58
2022/11/16 00:26:43;;;;;;;8.98;3.88;;;;;;;8.29;100.00;96020.78;5048497;28;20037;-59
2022/11/16 00:29:20;;;;;;;7.95;3.90;;;;;;;8.32;100.00;96012.16;5041467;28;20123;-59
2022/11/16 00:31:47;;;;;;;6.28;3.40;;;;;;;8.36;100.00;96015.13;5045643;28;20040;-59
2022/11/16 00:34:14;;;;;;;6.88;3.65;;;;;;;8.35;100.00;96018.09;5046061;28;20077;-57
2022/11/16 00:36:41;;;;;;;6.03;3.42;;;;;;;8.39;100.00;96013.75;5039838;28;20079;-59
2022/11/16 00:39:13;;;;;;;7.57;4.22;;;;;;;8.36;100.00;96007.03;5046611;28;20048;-59
2022/11/16 00:41:41;;;;;;;7.53;3.65;;;;;;;8.38;100.00;96010.28;5028493;28;20187;-59
2022/11/16 00:44:08;;;;;;;6.03;3.13;;;;;;;8.35;100.00;95994.63;5029320;28;20116;-59
2022/11/16 00:46:34;;;;;;;5.03;2.78;;;;;;;8.37;100.00;95992.47;5028883;28;20072;-59
2022/11/16 00:49:01;;;;;;;6.43;2.67;;;;;;;8.33;100.00;95999.47;5039587;28;20493;-58
2022/11/16 00:51:28;;;;;;;5.38;3.40;;;;;;;8.36;100.00;95993.53;5035861;28;20072;-59
2022/11/16 00:53:54;;;;;;;6.78;3.58;;;;;;;8.29;100.00;95996.53;5048552;28;20136;-59
2022/11/16 00:56:21;;;;;;;5.68;2.75;;;;;;;8.32;100.00;95987.06;5030379;28;20100;-59
2022/11/16 00:58:48;;;;;;;5.13;3.17;;;;;;;8.27;100.00;95984.38;5026748;28;20084;-57
2022/11/16 01:01:15;;;;;;;6.53;3.20;;;;;;;8.26;100.00;95974.69;5027205;28;20068;-58
2022/11/16 01:03:41;;;;;;;4.68;2.75;;;;;;;8.29;100.00;95987.63;5033675;28;20041;-59
2022/11/16 01:06:11;;;;;;;6.15;3.00;;;;;;;8.24;100.00;95993.00;5046993;28;20508;-58
2022/11/16 01:08:39;;;;;;;7.05;3.70;;;;;;;8.23;100.00;95992.22;5043640;28;20091;-59
2022/11/16 01:13:53;;;;;;;6.13;3.30;;;;;;;8.22;100.00;95995.19;5051632;28;20110;-58
2022/11/16 01:16:21;;;;;;;5.30;3.00;;;;;;;8.23;100.00;95986.84;5047850;28;20065;-58
2022/11/16 01:18:50;;;;;;;8.27;3.10;;;;;;;8.27;100.00;95990.59;5046061;28;20076;-58
2022/11/16 01:21:17;;;;;;;6.93;3.42;;;;;;;8.26;100.00;95994.34;5048067;28;20072;-58
2022/11/16 01:23:44;;;;;;;6.40;3.50;;;;;;;8.26;100.00;95993.56;5041738;28;20042;-58
2022/11/16 01:26:11;;;;;;;6.25;3.63;;;;;;;8.22;100.00;95979.00;5028468;28;20042;-59
2022/11/16 01:28:39;;;;;;;8.80;4.53;;;;;;;8.17;100.00;95983.31;5040064;28;20493;-58
2022/11/16 01:31:08;;;;;;;6.03;3.70;;;;;;;8.19;100.00;95985.75;5026748;28;20057;-59
2022/11/16 01:33:36;;;;;;;6.85;3.88;;;;;;;8.20;100.00;95987.38;5036820;28;20128;-59
2022/11/16 01:36:13;;;;;;;6.35;3.20;;;;;;;8.23;100.00;95978.75;5038273;28;20049;-58
2022/11/16 01:38:42;;;;;;;6.63;3.13;;;;;;;8.22;100.00;95985.19;5030188;28;20044;-59
2022/11/16 01:41:15;;;;;;;8.02;4.00;;;;;;;8.23;100.00;95986.00;5045813;28;20583;-59
2022/11/16 01:44:25;;;;;;;5.65;3.70;;;;;;;8.27;100.00;95982.50;5042477;28;20045;-59
2022/11/16 01:46:55;;;;;;;6.57;3.53;;;;;;;8.30;100.00;95986.56;5026261;28;20060;-59
2022/11/16 01:49:26;;;;;;;7.85;4.35;;;;;;;8.23;100.00;95986.84;5037967;28;20040;-59
2022/11/16 01:52:00;;;;;;;7.55;3.67;;;;;;;8.25;100.00;95978.47;5047040;28;20053;-58
2022/11/16 01:54:35;;;;;;;8.13;4.25;;;;;;;8.24;100.00;95979.53;5045525;28;20059;-59
2022/11/16 01:57:04;;;;;;;7.05;4.03;;;;;;;8.15;100.00;95980.06;5047209;28;20055;-59
2022/11/16 01:59:42;;;;;;;7.20;4.50;;;;;;;8.10;100.00;95982.78;5043011;28;20040;-59
2022/11/16 02:02:15;;;;;;;9.73;5.43;;;;;;;8.10;100.00;95977.38;5046015;28;20565;-59
2022/11/16 02:04:43;;;;;;;6.63;3.90;;;;;;;8.17;100.00;95982.50;5034318;28;20057;-58
2022/11/16 02:09:52;;;;;;;12.57;5.03;;;;;;;8.20;100.00;95982.78;5026078;28;20068;-58
2022/11/16 02:11:01;;;;;;;6.32;3.92;;;;;;;8.15;100.00;95980.06;5041907;28;20511;-59
2022/11/16 02:13:52;;;;;;;8.68;4.88;;;;;;;8.14;100.00;95980.38;5052692;28;20119;-59
2022/11/16 02:16:32;;;;;;;10.25;5.00;;;;;;;8.13;100.00;95984.13;5045240;28;20049;-59
2022/11/16 02:19:24;;;;;;;8.73;5.13;;;;;;;8.14;100.00;95989.25;5040225;28;20132;-59
2022/11/16 02:22:11;;;;;;;14.47;5.03;;;;;;;8.13;100.00;95982.25;5025329;28;20053;-59
2022/11/16 02:24:44;;;;;;;8.70;4.75;;;;;;;8.22;100.00;95977.09;5036824;28;20374;-59
2022/11/16 02:27:47;;;;;;;9.98;5.43;;;;;;;8.18;100.00;95979.53;5045486;28;20543;-59
2022/11/16 02:30:14;;;;;;;7.90;4.88;;;;;;;8.20;100.00;95979.28;5040742;28;20041;-57
2022/11/16 02:32:51;;;;;;;10.43;4.68;;;;;;;8.19;100.00;95977.66;5045228;28;20559;-58
2022/11/16 02:35:31;;;;;;;8.40;5.13;;;;;;;8.17;100.00;95977.94;5029899;28;20129;-59
2022/11/16 02:38:09;;;;;;;7.50;4.20;;;;;;;8.19;100.00;95977.66;5027715;28;20037;-59
2022/11/16 02:40:41;;;;;;;8.32;4.30;;;;;;;8.18;100.00;95967.94;5025110;28;20041;-59
2022/11/16 02:43:12;;;;;;;8.98;4.43;;;;;;;8.17;100.00;95977.13;5031041;28;20037;-59
2022/11/16 02:45:46;;;;;;;8.32;4.30;;;;;;;8.13;100.00;95962.56;5033029;28;20497;-59
2022/11/16 02:48:19;;;;;;;11.77;5.20;;;;;;;8.13;100.00;95963.38;5052084;28;20088;-59
2022/11/16 02:50:48;;;;;;;9.32;5.15;;;;;;;8.14;100.00;95975.78;5044599;28;20098;-58
2022/11/16 02:53:14;;;;;;;7.60;3.97;;;;;;;8.16;100.00;95976.31;5044213;28;20076;-59
2022/11/16 02:55:41;;;;;;;6.45;3.67;;;;;;;8.17;100.00;95969.03;5042329;28;20745;-59
2022/11/16 02:58:13;;;;;;;7.13;4.30;;;;;;;8.17;100.00;95966.31;5030457;28;20566;-59
2022/11/16 03:00:57;;;;;;;6.15;3.92;;;;;;;8.20;100.00;95966.63;5044848;28;20099;-59
2022/11/16 03:03:42;;;;;;;6.70;4.35;;;;;;;8.23;100.00;95967.13;5043410;28;20051;-59
2022/11/16 03:06:16;;;;;;;9.07;4.70;;;;;;;8.20;100.00;95955.81;5039742;28;20041;-58
2022/11/16 03:08:58;;;;;;;7.10;4.10;;;;;;;8.23;100.00;95965.25;5030424;28;20048;-59
2022/11/16 03:14:19;;;;;;;6.35;4.15;;;;;;;8.31;100.00;95964.72;5044056;28;20033;-59
2022/11/16 03:16:51;;;;;;;6.30;3.83;;;;;;;8.37;100.00;95965.50;5042283;28;20056;-59
2022/11/16 03:19:46;;;;;;;6.28;3.03;;;;;;;8.46;100.00;95963.06;5043124;28;20049;-59
2022/11/16 03:22:19;;;;;;;6.05;2.60;;;;;;;8.57;100.00;95955.78;5035572;28;20509;-58
2022/11/16 03:24:47;;;;;;;5.38;3.10;;;;;;;8.73;100.00;95953.03;5038589;28;20037;-58
2022/11/16 03:27:27;;;;;;;4.45;2.42;;;;;;;8.87;100.00;95940.56;5044573;28;20049;-59
2022/11/16 03:30:09;;;;;;;4.13;1.85;;;;;;;9.01;100.00;95939.97;5043286;28;20049;-59
2022/11/16 03:33:11;;;;;;;4.10;1.88;;;;;;;9.10;100.00;95928.31;5045268;28;20045;-59
2022/11/16 03:35:48;;;;;;;5.32;1.88;;;;;;;9.16;100.00;95928.28;5025927;28;20413;-59
2022/11/16 03:38:17;;;;;;;4.85;1.90;;;;;;;9.15;100.00;95929.38;5025947;28;20034;-57
2022/11/16 03:40:46;;;;;;;3.47;1.70;;;;;;;9.11;100.00;95939.94;5043869;28;20044;-59
2022/11/16 03:43:14;;;;;;;4.07;1.77;;;;;;;9.05;100.00;95947.25;5043677;28;20614;-59
2022/11/16 03:45:42;;;;;;;4.78;2.42;;;;;;;8.93;100.00;95944.06;5025078;28;20054;-58
2022/11/16 03:48:08;;;;;;;4.40;2.20;;;;;;;8.82;100.00;95959.47;5024174;28;20578;-59
2022/11/16 03:50:35;;;;;;;5.10;2.45;;;;;;;8.80;100.00;95975.13;5045203;28;20531;-58
2022/11/16 03:53:01;;;;;;;11.45;2.65;;;;;;;8.77;100.00;95973.78;5044572;28;20512;-58
2022/11/16 03:55:28;;;;;;;7.57;2.80;;;;;;;8.75;100.00;95986.75;5043469;28;20091;-58
2022/11/16 03:57:55;;;;;;;4.70;2.42;;;;;;;8.76;100.00;95987.56;5044882;28;20423;-59
2022/11/16 04:00:22;;;;;;;4.03;2.00;;;;;;;8.74;100.00;95987.03;5025861;28;20041;-57
2022/11/16 04:02:51;;;;;;;3.65;2.08;;;;;;;8.76;100.00;95987.56;5025751;28;20049;-58
2022/11/16 04:25:09;;;;;;;1.73;0.90;;;;;;;8.78;100.00;95967.34;5025498;28;20080;-59
2022/11/16 04:30:21;;;;;;;2.50;1.00;;;;;;;8.76;100.00;95982.16;5041828;28;20087;-59
2022/11/16 04:38:19;;;;;;;4.03;1.40;;;;;;;8.53;100.00;95976.28;5029982;28;20049;-59
2022/11/16 04:40:46;;;;;;;6.00;1.35;;;;;;;8.42;100.00;95979.00;5048915;28;20124;-59
2022/11/16 04:43:13;;;;;;;2.90;1.35;;;;;;;8.39;100.00;95976.00;5047402;28;20045;-59
2022/11/16 04:48:34;;;;;;;1.63;0.80;;;;;;;8.42;100.00;95989.78;5030664;28;20712;-59
2022/11/16 04:51:02;;;;;;;1.38;0.80;;;;;;;8.48;100.00;95989.75;5046365;28;20048;-59
2022/11/16 04:53:29;;;;;;;2.60;1.30;;;;;;;8.46;100.00;95988.16;5029107;28;20582;-58
2022/11/16 04:56:11;;;;;;;2.47;1.27;;;;;;;8.50;100.00;95990.28;5031242;28;20504;-59
2022/11/16 04:58:37;;;;;;;2.70;1.35;;;;;;;8.50;100.00;95992.97;5034626;28;20083;-57
2022/11/16 05:01:04;;;;;;;2.95;1.33;;;;;;;8.48;100.00;95990.59;5028868;28;20781;-59
2022/11/16 05:03:31;;;;;;;2.47;1.02;;;;;;;8.46;100.00;95995.44;5047267;28;20040;-59
2022/11/16 05:05:59;;;;;;;2.28;1.30;;;;;;;8.43;100.00;95994.09;5042719;28;20154;-58
2022/11/16 05:08:26;;;;;;;2.45;1.20;;;;;;;8.30;100.00;96003.53;5027016;28;20068;-59
2022/11/16 05:10:53;;;;;;;2.95;1.10;;;;;;;8.26;100.00;96005.16;5028013;28;20067;-59
2022/11/16 05:13:20;;;;;;;2.47;1.02;;;;;;;8.14;100.00;96004.63;5049682;28;20079;-59
2022/11/16 05:15:48;;;;;;;1.98;0.90;;;;;;;8.07;100.00;96003.00;5066996;28;20040;-58
2022/11/16 05:18:15;;;;;;;3.92;1.10;;;;;;;8.03;100.00;96004.63;5057361;28;20045;-59
2022/11/16 05:20:59;;;;;;;2.45;1.15;;;;;;;8.02;100.00;96003.00;5044060;28;20564;-59
2022/11/16 05:26:17;;;;;;;3.88;1.48;;;;;;;7.93;100.00;96010.81;5033672;28;20045;-58
2022/11/16 05:28:45;;;;;;;3.63;1.60;;;;;;;7.92;100.00;96011.06;5027173;28;20053;-59
2022/11/16 05:31:12;;;;;;;5.57;1.80;;;;;;;7.68;100.00;96004.31;5026325;28;20060;-59
2022/11/16 05:33:39;;;;;;;6.05;1.20;;;;;;;7.54;100.00;96006.72;5028875;28;20049;-58
2022/11/16 05:36:06;;;;;;;2.92;1.00;;;;;;;7.47;100.00;96008.84;5033178;28;20044;-59
2022/11/16 05:38:33;;;;;;;2.90;1.30;;;;;;;7.53;100.00;96015.06;5047796;28;20056;-59
2022/11/16 05:41:00;;;;;;;3.08;1.55;;;;;;;7.53;100.00;96013.16;5040026;28;20049;-58
2022/11/16 05:43:28;;;;;;;3.22;1.52;;;;;;;7.29;100.00;96021.72;5026225;28;20044;-59
2022/11/16 05:46:03;;;;;;;4.15;1.50;;;;;;;7.10;100.00;96026.78;5032305;28;20055;-59
2022/11/16 05:48:29;;;;;;;4.72;1.70;;;;;;;6.96;100.00;96028.34;5046692;28;20128;-59
2022/11/16 05:50:57;;;;;;;3.10;1.90;;;;;;;6.97;100.00;96032.66;5045450;28;20115;-59
2022/11/16 05:53:25;;;;;;;4.70;2.10;;;;;;;6.84;100.00;96029.34;5046207;28;20033;-59
2022/11/16 05:55:51;;;;;;;4.57;2.22;;;;;;;6.87;100.00;96033.41;5041737;28;20053;-59
2022/11/16 05:58:19;;;;;;;6.40;2.90;;;;;;;6.82;100.00;96033.38;5026215;28;20042;-59
2022/11/16 06:00:48;;;;;;;5.18;2.53;;;;;;;6.77;100.00;96031.44;5025673;28;20148;-59
2022/11/16 06:03:16;;;;;;;7.50;3.42;;;;;;;6.78;100.00;96040.34;5026346;28;20041;-59
2022/11/16 06:05:42;;;;;;;6.60;3.47;;;;;;;6.86;100.00;96035.25;5028099;28;20045;-59
2022/11/16 06:08:11;;;;;;;10.73;3.70;;;;;;;6.93;100.00;96039.63;5045963;28;20204;-59
2022/11/16 06:10:38;;;;;;;5.57;3.55;;;;;;;6.96;100.00;96041.78;5044838;28;20049;-59
2022/11/16 06:13:04;;;;;;;13.75;4.50;;;;;;;6.85;100.00;96046.28;5033117;28;20051;-59
2022/11/16 06:15:36;;;;;;;10.35;3.90;;;;;;;6.90;100.00;96052.50;5064292;28;20040;-58
2022/11/16 06:18:02;;;;;;;8.48;4.53;;;;;;;6.98;100.00;96053.91;5045379;28;20163;-59
2022/11/16 06:20:29;;;;;;;6.43;3.22;;;;;;;7.00;100.00;96059.81;5045296;28;20091;-59
2022/11/16 06:22:56;;;;;;;5.65;3.30;;;;;;;6.89;100.00;96061.66;5025809;28;20516;-59
2022/11/16 06:25:23;;;;;;;5.72;2.85;;;;;;;6.78;100.00;96065.34;5025915;28;20042;-59
2022/11/16 06:27:49;;;;;;;5.40;2.47;;;;;;;6.84;100.00;96060.81;5043423;28;20045;-59
2022/11/16 06:30:17;;;;;;;4.40;2.50;;;;;;;6.89;100.00;96060.84;5044886;28;20051;-59
2022/11/16 06:32:43;;;;;;;5.03;2.88;;;;;;;6.77;100.00;96069.13;5045122;28;20079;-59
2022/11/16 06:35:10;;;;;;;5.22;3.25;;;;;;;6.78;100.00;96073.41;5045980;28;20033;-59
2022/11/16 06:37:38;;;;;;;5.20;2.63;;;;;;;6.89;100.00;96076.97;5027566;28;20076;-59
2022/11/16 06:40:06;;;;;;;6.43;3.50;;;;;;;6.99;100.00;96074.38;5025646;28;20136;-58
2022/11/16 06:42:35;;;;;;;6.65;3.30;;;;;;;7.10;100.00;96077.09;5043017;28;20045;-58
2022/11/16 06:45:02;;;;;;;7.00;3.25;;;;;;;7.09;100.00;96076.31;5045546;28;20064;-59
2022/11/16 06:47:35;;;;;;;5.30;2.67;;;;;;;7.19;100.00;96085.50;5028364;28;20061;-58
2022/11/16 06:50:03;;;;;;;5.25;2.75;;;;;;;7.34;100.00;96088.25;5038438;28;20735;-58
2022/11/16 06:52:30;;;;;;;5.05;2.55;;;;;;;7.45;100.00;96088.31;5036600;28;20038;-59
2022/11/16 06:54:57;;;;;;;6.68;3.15;;;;;;;7.49;100.00;96087.50;5040765;28;20522;-59
2022/11/16 06:57:23;;;;;;;5.05;2.95;;;;;;;7.41;100.00;96088.03;5042764;28;20037;-57
2022/11/16 06:59:50;;;;;;;5.45;3.10;;;;;;;7.39;100.00;96090.97;5037702;28;20056;-59
2022/11/16 07:02:19;;;;;;;8.63;3.50;;;;;;;7.47;100.00;96092.34;5041877;28;20045;-59
2022/11/16 07:04:46;;;;;;;5.80;3.05;;;;;;;7.53;100.00;96093.19;5030365;28;20041;-59
2022/11/16 07:07:16;;;;;;;2.38;1.30;;;;;;;7.66;100.00;96092.69;5028697;28;20061;-57
2022/11/16 07:09:44;;;;;;;4.47;1.30;;;;;;;7.87;100.00;96095.44;5044599;28;20041;-59
2022/11/16 07:12:12;;;;;;;2.15;1.10;;;;;;;7.99;100.00;96087.09;5043066;28;20048;-59
2022/11/16 07:14:40;;;;;;;2.58;1.00;;;;;;;8.08;100.00;96090.09;5051654;28;20040;-59
2022/11/16 07:17:08;;;;;;;3.03;1.20;;;;;;;8.17;100.00;96085.78;5044056;28;20052;-58
2022/11/16 07:19:35;;;;;;;3.75;1.38;;;;;;;8.22;100.00;96092.25;5040386;28;20047;-58
2022/11/16 07:22:03;;;;;;;2.13;1.20;;;;;;;8.32;100.00;96090.38;5028711;28;20045;-59
2022/11/16 07:24:30;;;;;;;2.05;1.05;;;;;;;8.44;100.00;96086.63;5024015;28;20054;-59
2022/11/16 07:26:57;;;;;;;3.22;1.10;;;;;;;8.51;100.00;96089.84;5038662;28;20052;-59
2022/11/16 07:29:25;;;;;;;3.22;1.25;;;;;;;8.63;100.00;96092.31;5045407;28;20045;-57
2022/11/16 07:32:16;;;;;;;1.95;1.00;;;;;;;8.72;100.00;96089.84;5054480;28;20045;-57
2022/11/16 07:35:02;;;;;;;2.47;1.17;;;;;;;8.79;100.00;96097.66;5042295;28;20044;-56
2022/11/16 07:37:36;;;;;;;2.42;1.10;;;;;;;8.87;100.00;96094.41;5040555;28;20094;-58
2022/11/16 07:40:08;;;;;;;5.35;1.10;;;;;;;8.98;100.00;96092.50;5026825;28;20148;-56
2022/11/16 07:42:37;;;;;;;2.33;1.10;;;;;;;9.11;100.00;96093.84;5042767;28;20127;-55
2022/11/16 07:45:22;;;;;;;2.78;1.00;;;;;;;9.13;100.00;96093.56;5049108;28;20051;-58
2022/11/16 07:47:54;;;;;;;7.57;2.45;;;;;;;9.21;100.00;96099.22;5042990;28;20535;-58
2022/11/16 07:50:41;;;;;;;7.00;1.48;;;;;;;9.27;100.00;96101.88;5045564;28;20053;-55
2022/11/16 07:53:08;;;;;;;3.55;1.65;;;;;;;9.40;100.00;96114.00;5044850;28;20052;-57
2022/11/16 07:55:34;;;;;;;18.25;4.00;;;;;;;9.43;100.00;96103.47;5045751;28;20068;-55
2022/11/16 07:58:02;;;;;;;52.20;8.38;;;;;;;9.48;100.00;96116.16;5043611;28;20131;-59
2022/11/16 08:00:29;;;;;;;3.40;1.10;;;;;;;9.49;100.00;96110.47;5024274;28;20118;-58
2022/11/16 08:03:05;;;;;;;8.25;1.80;;;;;;;9.42;100.00;96111.84;5025051;28;20056;-58
2022/11/16 08:05:32;;;;;;;5.75;1.20;;;;;;;9.43;100.00;96103.47;5024786;28;20508;-58
2022/11/16 08:07:59;;;;;;;26.65;5.28;;;;;;;9.49;100.00;96110.47;5028988;28;20080;-59
2022/11/16 08:10:31;;;;;;;6.18;1.63;;;;;;;9.57;100.00;96109.09;5028700;28;20504;-58
2022/11/16 08:12:58;;;;;;;117.07;14.97;;;;;;;9.39;100.00;96107.78;5039347;28;20045;-58
2022/11/16 08:15:25;;;;;;;31.30;5.07;;;;;;;9.30;100.00;96110.28;5046497;28;20041;-59
2022/11/16 08:17:51;;;;;;;75.82;11.43;;;;;;;9.31;100.00;96108.34;5045092;28;20056;-59
2022/11/16 08:20:18;;;;;;;8.27;2.17;;;;;;;9.30;100.00;96106.75;5046844;28;20094;-59
2022/11/16 08:22:46;;;;;;;4.13;1.73;;;;;;;9.32;100.00;96108.09;5039997;28;20503;-57
2022/11/16 08:25:13;;;;;;;4.97;1.50;;;;;;;9.36;100.00;96100.22;5058815;28;20083;-58
2022/11/16 08:27:41;;;;;;;31.10;5.32;;;;;;;9.42;100.00;96107.25;5059203;28;20219;-57
2022/11/16 08:30:09;;;;;;;108.80;14.80;;;;;;;9.49;100.00;96101.53;5033982;28;20083;-59
2022/11/16 08:32:37;;;;;;;14.95;4.03;;;;;;;9.28;100.00;96111.63;5045350;28;20053;-56
2022/11/16 08:35:05;;;;;;;12.00;1.38;;;;;;;9.17;100.00;96116.22;5045767;28;20053;-57
2022/11/16 08:37:32;;;;;;;60.85;5.40;;;;;;;9.13;100.00;96115.19;5045639;28;20500;-59
2022/11/16 08:39:59;;;;;;;7.13;1.83;;;;;;;9.11;100.00;96112.75;5046380;28;20299;-57
2022/11/16 08:42:26;;;;;;;9.15;2.20;;;;;;;9.17;100.00;96127.03;5045508;28;20059;-59
2022/11/16 08:44:53;;;;;;;54.10;7.95;;;;;;;9.19;100.00;96117.59;5047840;28;20104;-58
2022/11/16 08:47:19;;;;;;;100.65;11.80;;;;;;;9.18;100.00;96118.66;5048575;28;20052;-57
2022/11/16 08:49:50;;;;;;;32.33;5.78;;;;;;;9.20;100.00;96116.50;5042151;28;20103;-58
2022/11/16 08:52:18;;;;;;;480.77;59.75;;;;;;;9.30;100.00;96120.25;5040409;28;20413;-58
2022/11/16 08:54:46;;;;;;;14.43;1.63;;;;;;;9.22;100.00;96118.94;5041765;28;20103;-57
2022/11/16 08:57:12;;;;;;;7.30;1.55;;;;;;;9.20;100.00;96119.19;5045539;28;20091;-59
2022/11/16 08:59:41;;;;;;;10.20;3.05;;;;;;;9.21;100.00;96123.50;5042512;28;20053;-57
2022/11/16 09:02:11;;;;;;;4.40;2.13;;;;;;;9.26;100.00;96124.59;5044838;28;20045;-59
2022/11/16 09:04:38;;;;;;;4.15;1.23;;;;;;;9.28;100.00;96120.53;5046581;28;20108;-58
2022/11/16 09:07:05;;;;;;;4.45;1.60;;;;;;;9.35;100.00;96117.53;5043855;28;20041;-59
2022/11/16 09:09:31;;;;;;;5.22;1.92;;;;;;;9.41;100.00;96115.63;5046194;28;20546;-58
2022/11/16 09:11:58;;;;;;;5.32;1.52;;;;;;;9.46;100.00;96119.13;5045587;28;20041;-58
2022/11/16 09:14:26;;;;;;;7.97;2.13;;;;;;;9.52;100.00;96122.63;5054977;28;20451;-57
2022/11/16 09:16:52;;;;;;;13.20;2.75;;;;;;;9.55;100.00;96122.03;5045676;28;20043;-58
2022/11/16 09:19:19;;;;;;;6.93;2.10;;;;;;;9.59;100.00;96117.72;5046765;28;20080;-60
2022/11/16 09:21:46;;;;;;;5.78;1.70;;;;;;;9.66;100.00;96114.69;5045338;28;20055;-57
2022/11/16 09:24:12;;;;;;;28.38;8.38;;;;;;;9.74;100.00;96116.03;5040321;28;20122;-58
2022/11/16 09:26:39;;;;;;;49.55;8.38;;;;;;;9.75;100.00;96114.94;5039605;28;20378;-57
2022/11/16 09:29:05;;;;;;;71.38;8.60;;;;;;;9.76;100.00;96106.56;5032437;28;20045;-59
2022/11/16 09:31:33;;;;;;;34.08;4.88;;;;;;;9.88;100.00;96111.63;5044981;28;20430;-59
2022/11/16 09:34:01;;;;;;;11.07;1.95;;;;;;;9.93;100.00;96110.81;5030830;28;20209;-59
2022/11/16 09:36:28;;;;;;;21.02;3.72;;;;;;;9.97;100.00;96116.47;5045062;28;20041;-59
2022/11/16 09:38:56;;;;;;;868.08;105.50;;;;;;;10.05;100.00;96113.16;5045843;28;20083;-59
2022/11/16 09:41:59;;;;;;;44.55;6.88;;;;;;;10.21;100.00;96122.00;5045414;28;20053;-58
2022/11/16 09:44:43;;;;;;;4.20;1.13;;;;;;;10.43;100.00;96123.47;5044904;28;20377;-58
2022/11/16 09:47:17;;;;;;;4.38;0.82;;;;;;;10.72;100.00;96127.34;5044318;28;20049;-58
2022/11/16 09:49:52;;;;;;;521.30;58.00;;;;;;;10.78;100.00;96123.50;5037406;28;20404;-58
2022/11/16 09:52:44;;;;;;;2.35;0.95;;;;;;;10.80;99.91;96130.25;5045211;28;20056;-57
2022/11/16 09:55:25;;;;;;;3.78;0.77;;;;;;;10.95;98.81;96127.69;5046128;28;20060;-58
2022/11/16 09:57:54;;;;;;;7.15;1.15;;;;;;;10.96;98.80;96124.72;5045506;28;20440;-57
2022/11/16 10:00:22;;;;;;;13.60;2.03;;;;;;;10.93;97.36;96126.09;5032782;28;20049;-58
2022/11/16 10:03:02;;;;;;;4.10;0.60;;;;;;;11.01;95.17;96126.53;5044971;28;20044;-56
2022/11/16 10:05:58;;;;;;;1.58;0.55;;;;;;;10.85;95.76;96125.88;5045672;28;20438;-57
2022/11/16 10:08:46;;;;;;;5.65;0.80;;;;;;;10.73;95.88;96129.75;5031355;28;20049;-58
2022/11/16 10:11:31;;;;;;;11.02;3.47;;;;;;;10.72;96.78;96130.84;5044645;28;20049;-58
2022/11/16 10:14:27;;;;;;;22.65;4.68;;;;;;;10.80;98.67;96127.53;5057218;28;20442;-57
2022/11/16 10:16:59;;;;;;;6.20;1.40;;;;;;;10.91;95.35;96127.47;5038114;28;20059;-58
2022/11/16 10:19:44;;;;;;;14.05;1.50;;;;;;;10.90;97.19;96126.66;5046081;28;20068;-58
2022/11/16 10:22:30;;;;;;;21.25;3.63;;;;;;;11.14;97.89;96131.31;5044519;28;20131;-58
2022/11/16 10:24:59;;;;;;;1.65;0.57;;;;;;;11.29;96.43;96122.22;5043838;28;20067;-59
2022/11/16 10:27:36;;;;;;;68.72;9.90;;;;;;;11.51;96.55;96111.94;5047952;28;20087;-58
2022/11/16 10:30:07;;;;;;;43.03;8.85;;;;;;;11.70;95.77;96110.09;5038628;28;20583;-58
2022/11/16 10:32:45;;;;;;;11.18;2.50;;;;;;;11.55;94.63;96111.09;5044479;28;20084;-57
2022/11/16 10:35:20;;;;;;;2.05;0.60;;;;;;;11.04;96.81;96113.25;5043722;28;20156;-57
2022/11/16 10:37:49;;;;;;;3.65;0.68;;;;;;;11.05;96.45;96119.47;5042593;28;20072;-58
2022/11/16 10:40:28;;;;;;;11.35;1.65;;;;;;;11.40;93.48;96103.13;5044131;28;20493;-58
2022/11/16 10:43:04;;;;;;;3.78;1.13;;;;;;;11.67;92.89;96101.72;5044549;28;20131;-58
2022/11/16 10:45:37;;;;;;;13.82;2.05;;;;;;;11.62;96.45;96094.47;5043738;28;20599;-58
2022/11/16 10:48:21;;;;;;;39.92;8.20;;;;;;;11.71;91.32;96100.03;5044911;28;20526;-59
2022/11/16 10:50:50;;;;;;;49.47;6.50;;;;;;;11.45;94.85;96092.22;5029946;28;20106;-59
2022/11/16 10:53:31;;;;;;;11.75;5.72;;;;;;;11.49;93.16;96093.25;5044209;28;20049;-58
2022/11/16 10:56:23;;;;;;;2.87;0.70;;;;;;;11.69;92.42;96084.06;5044282;28;20463;-59
2022/11/16 10:59:10;;;;;;;1.50;0.60;;;;;;;11.89;92.66;96076.75;5028796;28;20394;-58
2022/11/16 11:01:39;;;;;;;5.15;0.80;;;;;;;11.93;87.98;96075.06;5043189;28;20041;-59
2022/11/16 11:04:15;;;;;;;62.10;8.32;;;;;;;12.04;84.21;96075.72;5043333;28;20076;-58
2022/11/16 11:06:42;;;;;;;12.90;1.95;;;;;;;12.21;80.51;96079.88;5047044;28;20052;-58
2022/11/16 11:09:31;;;;;;;93.30;11.90;;;;;;;12.46;81.44;96083.28;5053979;28;20049;-59
2022/11/16 11:15:25;;;;;;;2.00;0.90;;;;;;;12.10;79.92;96063.72;5044837;28;19927;-59
2022/11/16 11:18:15;;;;;;;3.03;1.00;;;;;;;12.32;82.16;96075.09;5043896;28;20052;-59
2022/11/16 11:20:44;;;;;;;927.83;115.72;;;;;;;12.30;81.83;96071.84;5044280;28;20421;-58
2022/11/16 11:23:25;;;;;;;1.48;0.60;;;;;;;12.44;77.12;96063.75;5057590;28;20040;-59
2022/11/16 11:25:59;;;;;;;2.08;0.80;;;;;;;12.40;75.94;96066.28;5041917;28;20406;-58
2022/11/16 11:28:32;;;;;;;4.40;0.85;;;;;;;12.48;76.64;96062.06;5028340;28;20123;-59
2022/11/16 11:31:16;;;;;;;3.17;1.73;;;;;;;12.53;77.95;96061.19;5039286;28;20139;-58
2022/11/16 11:33:50;;;;;;;1.17;0.30;;;;;;;12.43;76.47;96059.44;5043648;28;20075;-59
2022/11/16 11:36:17;;;;;;;5.25;3.58;;;;;;;12.53;79.87;96058.47;5030429;28;20087;-58
2022/11/16 11:38:59;;;;;;;5.45;3.25;;;;;;;12.43;79.23;96057.56;5044099;28;20041;-58
2022/11/16 11:41:32;;;;;;;1.90;0.50;;;;;;;12.64;73.04;96050.97;5042813;28;20431;-61
2022/11/16 11:44:05;;;;;;;1.95;0.68;;;;;;;12.74;72.55;96058.91;5043187;28;20535;-61
2022/11/16 11:47:09;;;;;;;2.63;0.50;;;;;;;12.74;74.73;96067.06;5044029;28;20410;-61
2022/11/16 11:50:09;;;;;;;3.35;1.35;;;;;;;12.76;67.21;96062.16;5029081;28;20063;-61
2022/11/16 11:52:45;;;;;;;4.53;1.55;;;;;;;12.61;68.76;96055.09;5043453;28;20118;-57
2022/11/16 11:55:16;;;;;;;2.30;0.55;;;;;;;12.50;67.98;96054.44;5045818;28;20049;-59
2022/11/16 11:57:46;;;;;;;3.20;1.55;;;;;;;12.30;67.95;96050.94;5045603;28;20487;-58
2022/11/16 12:00:14;;;;;;;1.95;0.68;;;;;;;12.11;65.31;96059.13;5041595;28;20148;-58
2022/11/16 12:03:13;;;;;;;0.85;0.30;;;;;;;12.09;66.13;96062.13;5043618;28;20072;-57
2022/11/16 12:06:04;;;;;;;1.67;0.20;;;;;;;12.00;66.09;96053.00;5032223;28;20048;-58
2022/11/16 12:08:37;;;;;;;3.72;0.50;;;;;;;11.84;67.88;96045.06;5043891;28;20073;-58
2022/11/16 12:11:30;;;;;;;3.78;0.50;;;;;;;11.89;67.29;96046.91;5055661;28;20059;-57
2022/11/16 12:14:27;;;;;;;3.35;0.50;;;;;;;11.95;66.26;96044.94;5035671;28;20041;-57
2022/11/16 12:17:13;;;;;;;4.32;0.57;;;;;;;12.03;65.04;96046.19;5043618;28;20067;-58
2022/11/16 12:19:55;;;;;;;18.17;1.02;;;;;;;12.07;66.89;96036.38;5041286;28;20560;-57
2022/11/16 12:22:40;;;;;;;3.83;0.60;;;;;;;12.08;66.53;96035.28;5055283;28;20053;-56
2022/11/16 12:25:53;;;;;;;3.53;0.50;;;;;;;12.03;66.12;96032.63;5031457;28;20045;-58
2022/11/16 12:28:20;;;;;;;2.20;0.50;;;;;;;11.97;65.80;96031.88;5028341;28;20069;-58
2022/11/16 12:30:49;;;;;;;0.90;0.28;;;;;;;11.96;65.79;96027.56;5050890;28;20071;-58
2022/11/16 12:33:41;;;;;;;0.75;0.17;;;;;;;11.99;64.63;96023.44;5043510;28;20081;-58
2022/11/16 12:36:20;;;;;;;2.25;0.50;;;;;;;11.94;66.14;96027.84;5042552;28;20508;-58
2022/11/16 12:38:58;;;;;;;1.60;0.82;;;;;;;11.83;64.15;96029.91;5043376;28;20068;-58
2022/11/16 12:41:30;;;;;;;3.17;0.40;;;;;;;11.91;64.15;96020.28;5042319;28;20136;-58